sensor_id;sensor_type;location;lat;lon;timestamp;P1;durP1;ratioP1;P2;durP2;ratioP2
10947;SDS011;5526;42.070;24.752;2024-03-06T00:00:06;24.95;;;22.17;;
10947;SDS011;5526;42.070;24.752;2024-03-06T00:02:34;24.63;;;21.92;;
10947;SDS011;5526;42.070;24.752;2024-03-06T00:05:01;25.17;;;20.98;;
10947;SDS011;5526;42.070;24.752;2024-03-06T00:07:29;24.42;;;21.30;;
10947;SDS011;5526;42.070;24.752;2024-03-06T00:09:58;24.98;;;20.50;;
10947;SDS011;5526;42.070;24.752;2024-03-06T00:12:25;25.40;;;20.40;;
10947;SDS011;5526;42.070;24.752;2024-03-06T00:14:52;23.15;;;20.35;;
10947;SDS011;5526;42.070;24.752;2024-03-06T00:17:19;22.83;;;20.30;;
10947;SDS011;5526;42.070;24.752;2024-03-06T00:19:46;21.90;;;19.58;;
10947;SDS011;5526;42.070;24.752;2024-03-06T00:22:13;22.42;;;19.27;;
10947;SDS011;5526;42.070;24.752;2024-03-06T00:24:42;22.77;;;20.35;;
10947;SDS011;5526;42.070;24.752;2024-03-06T00:27:10;21.70;;;19.38;;
10947;SDS011;5526;42.070;24.752;2024-03-06T00:29:38;21.95;;;19.17;;
10947;SDS011;5526;42.070;24.752;2024-03-06T00:32:05;20.02;;;17.77;;
10947;SDS011;5526;42.070;24.752;2024-03-06T00:34:32;22.45;;;18.58;;
10947;SDS011;5526;42.070;24.752;2024-03-06T00:36:59;19.90;;;17.83;;
10947;SDS011;5526;42.070;24.752;2024-03-06T00:39:27;18.63;;;16.63;;
10947;SDS011;5526;42.070;24.752;2024-03-06T00:41:54;18.08;;;16.25;;
10947;SDS011;5526;42.070;24.752;2024-03-06T00:44:22;20.10;;;16.90;;
10947;SDS011;5526;42.070;24.752;2024-03-06T00:46:49;18.30;;;16.40;;
10947;SDS011;5526;42.070;24.752;2024-03-06T00:49:17;17.60;;;15.80;;
10947;SDS011;5526;42.070;24.752;2024-03-06T00:51:44;17.77;;;15.90;;
10947;SDS011;5526;42.070;24.752;2024-03-06T00:54:11;18.02;;;16.15;;
10947;SDS011;5526;42.070;24.752;2024-03-06T00:56:38;18.95;;;16.98;;
10947;SDS011;5526;42.070;24.752;2024-03-06T00:59:05;18.40;;;16.42;;
10947;SDS011;5526;42.070;24.752;2024-03-06T01:01:34;17.80;;;15.95;;
10947;SDS011;5526;42.070;24.752;2024-03-06T01:04:01;18.15;;;16.17;;
10947;SDS011;5526;42.070;24.752;2024-03-06T01:06:28;18.60;;;16.08;;
10947;SDS011;5526;42.070;24.752;2024-03-06T01:08:55;17.40;;;15.50;;
10947;SDS011;5526;42.070;24.752;2024-03-06T01:11:23;17.35;;;15.55;;
10947;SDS011;5526;42.070;24.752;2024-03-06T01:13:51;14.77;;;13.35;;
10947;SDS011;5526;42.070;24.752;2024-03-06T01:16:18;12.77;;;11.57;;
10947;SDS011;5526;42.070;24.752;2024-03-06T01:18:47;16.73;;;15.13;;
10947;SDS011;5526;42.070;24.752;2024-03-06T01:21:14;19.83;;;16.73;;
10947;SDS011;5526;42.070;24.752;2024-03-06T01:23:41;24.17;;;20.45;;
10947;SDS011;5526;42.070;24.752;2024-03-06T01:26:08;23.08;;;19.17;;
10947;SDS011;5526;42.070;24.752;2024-03-06T01:28:36;20.65;;;18.38;;
10947;SDS011;5526;42.070;24.752;2024-03-06T01:31:03;21.90;;;18.30;;
10947;SDS011;5526;42.070;24.752;2024-03-06T01:33:31;23.30;;;20.05;;
10947;SDS011;5526;42.070;24.752;2024-03-06T01:35:59;24.23;;;20.83;;
10947;SDS011;5526;42.070;24.752;2024-03-06T01:38:26;27.10;;;21.52;;
10947;SDS011;5526;42.070;24.752;2024-03-06T01:40:53;34.30;;;25.58;;
10947;SDS011;5526;42.070;24.752;2024-03-06T01:43:21;36.90;;;27.25;;
10947;SDS011;5526;42.070;24.752;2024-03-06T01:45:50;35.78;;;28.02;;
10947;SDS011;5526;42.070;24.752;2024-03-06T01:48:19;39.42;;;29.23;;
10947;SDS011;5526;42.070;24.752;2024-03-06T01:50:48;45.00;;;32.55;;
10947;SDS011;5526;42.070;24.752;2024-03-06T01:53:17;40.40;;;29.75;;
10947;SDS011;5526;42.070;24.752;2024-03-06T01:55:45;37.85;;;29.35;;
10947;SDS011;5526;42.070;24.752;2024-03-06T01:58:12;33.90;;;27.77;;
10947;SDS011;5526;42.070;24.752;2024-03-06T02:00:39;30.40;;;22.90;;
10947;SDS011;5526;42.070;24.752;2024-03-06T02:03:07;26.40;;;22.27;;
10947;SDS011;5526;42.070;24.752;2024-03-06T02:05:34;26.25;;;20.70;;
10947;SDS011;5526;42.070;24.752;2024-03-06T02:08:01;22.52;;;19.75;;
10947;SDS011;5526;42.070;24.752;2024-03-06T02:10:31;22.88;;;18.58;;
10947;SDS011;5526;42.070;24.752;2024-03-06T02:12:58;21.08;;;17.85;;
10947;SDS011;5526;42.070;24.752;2024-03-06T02:15:25;21.50;;;17.90;;
10947;SDS011;5526;42.070;24.752;2024-03-06T02:17:52;20.73;;;17.00;;
10947;SDS011;5526;42.070;24.752;2024-03-06T02:20:22;17.10;;;15.30;;
10947;SDS011;5526;42.070;24.752;2024-03-06T02:22:50;16.90;;;14.75;;
10947;SDS011;5526;42.070;24.752;2024-03-06T02:25:17;15.38;;;13.80;;
10947;SDS011;5526;42.070;24.752;2024-03-06T02:27:45;14.40;;;12.90;;
10947;SDS011;5526;42.070;24.752;2024-03-06T02:30:13;13.48;;;12.15;;
10947;SDS011;5526;42.070;24.752;2024-03-06T02:32:40;13.10;;;11.77;;
10947;SDS011;5526;42.070;24.752;2024-03-06T02:35:09;13.38;;;11.32;;
10947;SDS011;5526;42.070;24.752;2024-03-06T02:37:38;12.40;;;11.15;;
10947;SDS011;5526;42.070;24.752;2024-03-06T02:40:07;14.35;;;12.75;;
10947;SDS011;5526;42.070;24.752;2024-03-06T02:42:35;14.63;;;11.80;;
10947;SDS011;5526;42.070;24.752;2024-03-06T02:45:04;11.05;;;10.02;;
10947;SDS011;5526;42.070;24.752;2024-03-06T02:47:32;11.65;;;10.55;;
10947;SDS011;5526;42.070;24.752;2024-03-06T02:49:59;11.27;;;10.18;;
10947;SDS011;5526;42.070;24.752;2024-03-06T02:52:26;9.77;;;8.88;;
10947;SDS011;5526;42.070;24.752;2024-03-06T02:54:55;10.95;;;9.85;;
10947;SDS011;5526;42.070;24.752;2024-03-06T02:57:23;10.10;;;9.20;;
10947;SDS011;5526;42.070;24.752;2024-03-06T02:59:54;10.07;;;9.18;;
10947;SDS011;5526;42.070;24.752;2024-03-06T03:02:22;10.65;;;9.65;;
10947;SDS011;5526;42.070;24.752;2024-03-06T03:04:50;12.40;;;9.88;;
10947;SDS011;5526;42.070;24.752;2024-03-06T03:07:17;16.23;;;11.80;;
10947;SDS011;5526;42.070;24.752;2024-03-06T03:09:44;11.48;;;10.18;;
10947;SDS011;5526;42.070;24.752;2024-03-06T03:12:13;13.07;;;10.75;;
10947;SDS011;5526;42.070;24.752;2024-03-06T03:14:41;11.85;;;10.43;;
10947;SDS011;5526;42.070;24.752;2024-03-06T03:17:08;11.07;;;9.90;;
10947;SDS011;5526;42.070;24.752;2024-03-06T03:19:35;11.35;;;10.25;;
10947;SDS011;5526;42.070;24.752;2024-03-06T03:22:05;12.05;;;10.80;;
10947;SDS011;5526;42.070;24.752;2024-03-06T03:24:33;11.98;;;10.85;;
10947;SDS011;5526;42.070;24.752;2024-03-06T03:27:00;12.07;;;10.88;;
10947;SDS011;5526;42.070;24.752;2024-03-06T03:29:28;11.52;;;10.48;;
10947;SDS011;5526;42.070;24.752;2024-03-06T03:31:56;12.88;;;11.57;;
10947;SDS011;5526;42.070;24.752;2024-03-06T03:34:23;13.63;;;11.77;;
10947;SDS011;5526;42.070;24.752;2024-03-06T03:36:50;14.90;;;13.50;;
10947;SDS011;5526;42.070;24.752;2024-03-06T03:39:17;16.05;;;14.45;;
10947;SDS011;5526;42.070;24.752;2024-03-06T03:41:47;18.50;;;16.45;;
10947;SDS011;5526;42.070;24.752;2024-03-06T03:44:15;18.48;;;15.88;;
10947;SDS011;5526;42.070;24.752;2024-03-06T03:46:45;17.40;;;15.60;;
10947;SDS011;5526;42.070;24.752;2024-03-06T03:49:13;17.65;;;15.80;;
10947;SDS011;5526;42.070;24.752;2024-03-06T03:51:42;18.38;;;16.30;;
10947;SDS011;5526;42.070;24.752;2024-03-06T03:54:09;16.92;;;15.23;;
10947;SDS011;5526;42.070;24.752;2024-03-06T03:56:36;17.00;;;15.30;;
10947;SDS011;5526;42.070;24.752;2024-03-06T03:59:04;19.35;;;16.73;;
10947;SDS011;5526;42.070;24.752;2024-03-06T04:01:31;18.52;;;16.67;;
10947;SDS011;5526;42.070;24.752;2024-03-06T04:03:59;18.38;;;16.48;;
10947;SDS011;5526;42.070;24.752;2024-03-06T04:06:26;21.08;;;18.77;;
10947;SDS011;5526;42.070;24.752;2024-03-06T04:08:53;43.90;;;30.38;;
10947;SDS011;5526;42.070;24.752;2024-03-06T04:11:20;28.02;;;22.27;;
10947;SDS011;5526;42.070;24.752;2024-03-06T04:13:47;26.40;;;22.48;;
10947;SDS011;5526;42.070;24.752;2024-03-06T04:16:15;36.03;;;28.05;;
10947;SDS011;5526;42.070;24.752;2024-03-06T04:18:44;39.72;;;27.58;;
10947;SDS011;5526;42.070;24.752;2024-03-06T04:21:13;35.30;;;29.05;;
10947;SDS011;5526;42.070;24.752;2024-03-06T04:23:40;38.40;;;27.35;;
10947;SDS011;5526;42.070;24.752;2024-03-06T04:26:07;39.13;;;30.85;;
10947;SDS011;5526;42.070;24.752;2024-03-06T04:28:34;45.60;;;40.63;;
10947;SDS011;5526;42.070;24.752;2024-03-06T04:31:01;32.92;;;27.85;;
10947;SDS011;5526;42.070;24.752;2024-03-06T04:33:29;29.55;;;25.83;;
10947;SDS011;5526;42.070;24.752;2024-03-06T04:35:56;29.90;;;26.27;;
10947;SDS011;5526;42.070;24.752;2024-03-06T04:38:24;28.83;;;24.38;;
10947;SDS011;5526;42.070;24.752;2024-03-06T04:40:52;23.92;;;21.27;;
10947;SDS011;5526;42.070;24.752;2024-03-06T04:43:19;24.83;;;22.00;;
10947;SDS011;5526;42.070;24.752;2024-03-06T04:45:46;23.15;;;20.65;;
10947;SDS011;5526;42.070;24.752;2024-03-06T04:48:13;23.08;;;20.60;;
10947;SDS011;5526;42.070;24.752;2024-03-06T04:50:40;22.70;;;20.35;;
10947;SDS011;5526;42.070;24.752;2024-03-06T04:53:07;23.42;;;20.88;;
10947;SDS011;5526;42.070;24.752;2024-03-06T04:55:37;25.45;;;22.73;;
10947;SDS011;5526;42.070;24.752;2024-03-06T04:58:04;23.77;;;21.33;;
10947;SDS011;5526;42.070;24.752;2024-03-06T05:00:31;24.30;;;20.77;;
10947;SDS011;5526;42.070;24.752;2024-03-06T05:02:58;23.15;;;20.75;;
10947;SDS011;5526;42.070;24.752;2024-03-06T05:05:25;25.10;;;22.38;;
10947;SDS011;5526;42.070;24.752;2024-03-06T05:07:52;31.73;;;28.30;;
10947;SDS011;5526;42.070;24.752;2024-03-06T05:10:19;30.77;;;27.52;;
10947;SDS011;5526;42.070;24.752;2024-03-06T05:12:48;29.08;;;26.10;;
10947;SDS011;5526;42.070;24.752;2024-03-06T05:15:15;24.63;;;22.13;;
10947;SDS011;5526;42.070;24.752;2024-03-06T05:17:44;26.27;;;23.52;;
10947;SDS011;5526;42.070;24.752;2024-03-06T05:20:11;23.83;;;21.17;;
10947;SDS011;5526;42.070;24.752;2024-03-06T05:22:39;24.75;;;21.23;;
10947;SDS011;5526;42.070;24.752;2024-03-06T05:25:06;23.88;;;21.30;;
10947;SDS011;5526;42.070;24.752;2024-03-06T05:27:33;23.75;;;21.27;;
10947;SDS011;5526;42.070;24.752;2024-03-06T05:30:02;25.08;;;22.27;;
10947;SDS011;5526;42.070;24.752;2024-03-06T05:32:30;52.08;;;41.03;;
10947;SDS011;5526;42.070;24.752;2024-03-06T05:34:57;51.75;;;39.95;;
10947;SDS011;5526;42.070;24.752;2024-03-06T05:37:24;42.80;;;34.78;;
10947;SDS011;5526;42.070;24.752;2024-03-06T05:39:53;33.75;;;29.67;;
10947;SDS011;5526;42.070;24.752;2024-03-06T05:42:20;36.90;;;30.85;;
10947;SDS011;5526;42.070;24.752;2024-03-06T05:44:47;56.75;;;48.22;;
10947;SDS011;5526;42.070;24.752;2024-03-06T05:47:17;41.65;;;35.72;;
10947;SDS011;5526;42.070;24.752;2024-03-06T05:49:45;33.58;;;28.88;;
10947;SDS011;5526;42.070;24.752;2024-03-06T05:52:13;34.45;;;29.67;;
10947;SDS011;5526;42.070;24.752;2024-03-06T05:54:40;38.92;;;30.60;;
10947;SDS011;5526;42.070;24.752;2024-03-06T05:57:07;41.17;;;34.70;;
10947;SDS011;5526;42.070;24.752;2024-03-06T05:59:34;40.30;;;35.70;;
10947;SDS011;5526;42.070;24.752;2024-03-06T06:02:02;39.33;;;33.03;;
10947;SDS011;5526;42.070;24.752;2024-03-06T06:04:31;41.08;;;33.20;;
10947;SDS011;5526;42.070;24.752;2024-03-06T06:06:59;40.25;;;31.88;;
10947;SDS011;5526;42.070;24.752;2024-03-06T06:09:26;38.67;;;30.88;;
10947;SDS011;5526;42.070;24.752;2024-03-06T06:11:53;34.72;;;29.63;;
10947;SDS011;5526;42.070;24.752;2024-03-06T06:14:20;31.67;;;27.70;;
10947;SDS011;5526;42.070;24.752;2024-03-06T06:16:47;29.85;;;25.52;;
10947;SDS011;5526;42.070;24.752;2024-03-06T06:19:14;28.30;;;25.25;;
10947;SDS011;5526;42.070;24.752;2024-03-06T06:21:43;28.20;;;25.40;;
10947;SDS011;5526;42.070;24.752;2024-03-06T06:24:12;25.60;;;22.92;;
10947;SDS011;5526;42.070;24.752;2024-03-06T06:26:39;24.30;;;21.27;;
10947;SDS011;5526;42.070;24.752;2024-03-06T06:29:07;24.95;;;22.23;;
10947;SDS011;5526;42.070;24.752;2024-03-06T06:31:34;24.50;;;21.40;;
10947;SDS011;5526;42.070;24.752;2024-03-06T06:34:01;22.75;;;20.30;;
10947;SDS011;5526;42.070;24.752;2024-03-06T06:36:28;24.25;;;21.70;;
10947;SDS011;5526;42.070;24.752;2024-03-06T06:38:57;23.35;;;20.95;;
10947;SDS011;5526;42.070;24.752;2024-03-06T06:41:24;23.20;;;20.80;;
10947;SDS011;5526;42.070;24.752;2024-03-06T06:43:51;23.65;;;20.42;;
10947;SDS011;5526;42.070;24.752;2024-03-06T06:46:18;22.40;;;20.10;;
10947;SDS011;5526;42.070;24.752;2024-03-06T06:48:46;20.70;;;18.50;;
10947;SDS011;5526;42.070;24.752;2024-03-06T06:51:14;21.63;;;19.38;;
10947;SDS011;5526;42.070;24.752;2024-03-06T06:53:41;20.67;;;17.92;;
10947;SDS011;5526;42.070;24.752;2024-03-06T06:56:13;19.17;;;17.27;;
10947;SDS011;5526;42.070;24.752;2024-03-06T06:58:40;18.35;;;16.63;;
10947;SDS011;5526;42.070;24.752;2024-03-06T07:01:08;18.65;;;16.70;;
10947;SDS011;5526;42.070;24.752;2024-03-06T07:03:36;18.45;;;16.42;;
10947;SDS011;5526;42.070;24.752;2024-03-06T07:06:03;19.35;;;17.40;;
10947;SDS011;5526;42.070;24.752;2024-03-06T07:08:31;19.73;;;17.63;;
10947;SDS011;5526;42.070;24.752;2024-03-06T07:10:58;17.98;;;16.10;;
10947;SDS011;5526;42.070;24.752;2024-03-06T07:13:27;18.58;;;16.77;;
10947;SDS011;5526;42.070;24.752;2024-03-06T07:15:54;19.58;;;17.63;;
10947;SDS011;5526;42.070;24.752;2024-03-06T07:18:21;19.50;;;17.50;;
10947;SDS011;5526;42.070;24.752;2024-03-06T07:20:48;17.75;;;15.98;;
10947;SDS011;5526;42.070;24.752;2024-03-06T07:23:15;18.65;;;16.83;;
10947;SDS011;5526;42.070;24.752;2024-03-06T07:25:42;17.08;;;15.38;;
10947;SDS011;5526;42.070;24.752;2024-03-06T07:28:09;19.25;;;17.35;;
10947;SDS011;5526;42.070;24.752;2024-03-06T07:30:37;18.52;;;16.63;;
10947;SDS011;5526;42.070;24.752;2024-03-06T07:33:04;18.50;;;16.63;;
10947;SDS011;5526;42.070;24.752;2024-03-06T07:35:32;18.95;;;17.05;;
10947;SDS011;5526;42.070;24.752;2024-03-06T07:38:01;19.48;;;17.48;;
10947;SDS011;5526;42.070;24.752;2024-03-06T07:40:29;21.27;;;18.90;;
10947;SDS011;5526;42.070;24.752;2024-03-06T07:42:57;22.42;;;18.00;;
10947;SDS011;5526;42.070;24.752;2024-03-06T07:45:25;20.38;;;18.30;;
10947;SDS011;5526;42.070;24.752;2024-03-06T07:47:54;20.77;;;18.58;;
10947;SDS011;5526;42.070;24.752;2024-03-06T07:50:21;28.42;;;23.92;;
10947;SDS011;5526;42.070;24.752;2024-03-06T07:52:48;23.80;;;21.50;;
10947;SDS011;5526;42.070;24.752;2024-03-06T07:55:15;22.40;;;19.85;;
10947;SDS011;5526;42.070;24.752;2024-03-06T07:57:44;22.30;;;19.83;;
10947;SDS011;5526;42.070;24.752;2024-03-06T08:00:11;24.52;;;21.75;;
10947;SDS011;5526;42.070;24.752;2024-03-06T08:02:40;20.88;;;18.80;;
10947;SDS011;5526;42.070;24.752;2024-03-06T08:05:11;21.25;;;19.15;;
10947;SDS011;5526;42.070;24.752;2024-03-06T08:07:38;20.88;;;18.85;;
10947;SDS011;5526;42.070;24.752;2024-03-06T08:10:07;20.60;;;18.70;;
10947;SDS011;5526;42.070;24.752;2024-03-06T08:12:38;20.27;;;17.90;;
10947;SDS011;5526;42.070;24.752;2024-03-06T08:15:07;21.38;;;18.77;;
10947;SDS011;5526;42.070;24.752;2024-03-06T08:17:37;20.20;;;18.25;;
10947;SDS011;5526;42.070;24.752;2024-03-06T08:20:07;18.80;;;16.90;;
10947;SDS011;5526;42.070;24.752;2024-03-06T08:22:38;19.00;;;17.05;;
10947;SDS011;5526;42.070;24.752;2024-03-06T08:25:06;18.70;;;16.92;;
10947;SDS011;5526;42.070;24.752;2024-03-06T08:27:34;18.90;;;17.08;;
10947;SDS011;5526;42.070;24.752;2024-03-06T08:30:02;18.48;;;16.58;;
10947;SDS011;5526;42.070;24.752;2024-03-06T08:32:30;17.20;;;15.40;;
10947;SDS011;5526;42.070;24.752;2024-03-06T08:34:58;17.17;;;15.23;;
10947;SDS011;5526;42.070;24.752;2024-03-06T08:37:25;17.15;;;15.45;;
10947;SDS011;5526;42.070;24.752;2024-03-06T08:39:54;16.58;;;14.85;;
10947;SDS011;5526;42.070;24.752;2024-03-06T08:42:21;15.82;;;14.05;;
10947;SDS011;5526;42.070;24.752;2024-03-06T08:44:48;16.13;;;14.18;;
10947;SDS011;5526;42.070;24.752;2024-03-06T08:47:16;15.07;;;12.32;;
10947;SDS011;5526;42.070;24.752;2024-03-06T08:49:43;12.98;;;11.45;;
10947;SDS011;5526;42.070;24.752;2024-03-06T08:52:10;12.75;;;11.52;;
10947;SDS011;5526;42.070;24.752;2024-03-06T08:54:37;13.20;;;11.25;;
10947;SDS011;5526;42.070;24.752;2024-03-06T08:57:08;15.05;;;11.60;;
10947;SDS011;5526;42.070;24.752;2024-03-06T08:59:35;11.85;;;10.63;;
10947;SDS011;5526;42.070;24.752;2024-03-06T09:02:11;12.57;;;11.30;;
10947;SDS011;5526;42.070;24.752;2024-03-06T09:04:40;11.30;;;10.15;;
10947;SDS011;5526;42.070;24.752;2024-03-06T09:07:07;11.85;;;10.65;;
10947;SDS011;5526;42.070;24.752;2024-03-06T09:09:34;11.57;;;10.38;;
10947;SDS011;5526;42.070;24.752;2024-03-06T09:12:02;10.98;;;9.93;;
10947;SDS011;5526;42.070;24.752;2024-03-06T09:14:32;11.02;;;9.93;;
10947;SDS011;5526;42.070;24.752;2024-03-06T09:16:59;12.38;;;11.07;;
10947;SDS011;5526;42.070;24.752;2024-03-06T09:19:27;15.48;;;10.82;;
10947;SDS011;5526;42.070;24.752;2024-03-06T09:21:54;12.30;;;10.77;;
10947;SDS011;5526;42.070;24.752;2024-03-06T09:24:21;11.63;;;10.43;;
10947;SDS011;5526;42.070;24.752;2024-03-06T09:26:50;12.45;;;11.13;;
10947;SDS011;5526;42.070;24.752;2024-03-06T09:29:18;11.52;;;10.35;;
10947;SDS011;5526;42.070;24.752;2024-03-06T09:31:47;10.80;;;9.73;;
10947;SDS011;5526;42.070;24.752;2024-03-06T09:34:15;12.65;;;10.63;;
10947;SDS011;5526;42.070;24.752;2024-03-06T09:36:45;12.43;;;10.38;;
10947;SDS011;5526;42.070;24.752;2024-03-06T09:39:13;10.85;;;9.73;;
10947;SDS011;5526;42.070;24.752;2024-03-06T09:41:42;10.38;;;9.40;;
10947;SDS011;5526;42.070;24.752;2024-03-06T09:44:10;11.25;;;10.05;;
10947;SDS011;5526;42.070;24.752;2024-03-06T09:46:39;12.43;;;9.35;;
10947;SDS011;5526;42.070;24.752;2024-03-06T09:49:11;10.77;;;9.75;;
10947;SDS011;5526;42.070;24.752;2024-03-06T09:51:39;11.30;;;10.13;;
10947;SDS011;5526;42.070;24.752;2024-03-06T09:54:10;10.88;;;9.80;;
10947;SDS011;5526;42.070;24.752;2024-03-06T09:56:40;10.35;;;9.35;;
10947;SDS011;5526;42.070;24.752;2024-03-06T09:59:10;10.63;;;9.35;;
10947;SDS011;5526;42.070;24.752;2024-03-06T10:01:39;10.40;;;9.32;;
10947;SDS011;5526;42.070;24.752;2024-03-06T10:04:19;12.07;;;9.25;;
10947;SDS011;5526;42.070;24.752;2024-03-06T10:06:46;9.65;;;8.57;;
10947;SDS011;5526;42.070;24.752;2024-03-06T10:09:16;9.80;;;8.80;;
10947;SDS011;5526;42.070;24.752;2024-03-06T10:11:44;9.82;;;8.85;;
10947;SDS011;5526;42.070;24.752;2024-03-06T10:14:11;9.75;;;8.73;;
10947;SDS011;5526;42.070;24.752;2024-03-06T10:16:51;10.00;;;8.90;;
10947;SDS011;5526;42.070;24.752;2024-03-06T10:19:20;9.55;;;8.65;;
10947;SDS011;5526;42.070;24.752;2024-03-06T10:21:48;9.93;;;8.95;;
10947;SDS011;5526;42.070;24.752;2024-03-06T10:24:19;9.88;;;8.65;;
10947;SDS011;5526;42.070;24.752;2024-03-06T10:26:48;10.27;;;9.27;;
10947;SDS011;5526;42.070;24.752;2024-03-06T10:29:16;9.82;;;8.82;;
10947;SDS011;5526;42.070;24.752;2024-03-06T10:31:51;9.75;;;8.77;;
10947;SDS011;5526;42.070;24.752;2024-03-06T10:34:21;9.43;;;8.55;;
10947;SDS011;5526;42.070;24.752;2024-03-06T10:36:49;11.65;;;9.90;;
10947;SDS011;5526;42.070;24.752;2024-03-06T10:39:20;12.95;;;11.82;;
10947;SDS011;5526;42.070;24.752;2024-03-06T10:41:50;12.05;;;10.85;;
10947;SDS011;5526;42.070;24.752;2024-03-06T10:44:20;12.45;;;11.35;;
10947;SDS011;5526;42.070;24.752;2024-03-06T10:46:47;13.05;;;11.85;;
10947;SDS011;5526;42.070;24.752;2024-03-06T10:49:24;14.40;;;13.10;;
10947;SDS011;5526;42.070;24.752;2024-03-06T10:51:54;14.80;;;13.40;;
10947;SDS011;5526;42.070;24.752;2024-03-06T10:54:26;13.40;;;12.15;;
10947;SDS011;5526;42.070;24.752;2024-03-06T10:56:56;11.13;;;10.00;;
10947;SDS011;5526;42.070;24.752;2024-03-06T10:59:24;12.27;;;10.35;;
10947;SDS011;5526;42.070;24.752;2024-03-06T11:01:53;10.95;;;9.82;;
10947;SDS011;5526;42.070;24.752;2024-03-06T11:04:21;10.82;;;9.73;;
10947;SDS011;5526;42.070;24.752;2024-03-06T11:06:54;11.20;;;10.10;;
10947;SDS011;5526;42.070;24.752;2024-03-06T11:09:21;10.20;;;9.10;;
10947;SDS011;5526;42.070;24.752;2024-03-06T11:11:49;10.15;;;9.15;;
10947;SDS011;5526;42.070;24.752;2024-03-06T11:14:17;10.55;;;9.45;;
10947;SDS011;5526;42.070;24.752;2024-03-06T11:17:04;9.50;;;8.65;;
10947;SDS011;5526;42.070;24.752;2024-03-06T11:28:24;10.85;;;8.23;;
10947;SDS011;5526;42.070;24.752;2024-03-06T11:30:55;8.82;;;7.88;;
10947;SDS011;5526;42.070;24.752;2024-03-06T11:33:27;8.20;;;7.40;;
10947;SDS011;5526;42.070;24.752;2024-03-06T11:36:16;8.30;;;7.50;;
10947;SDS011;5526;42.070;24.752;2024-03-06T11:38:50;7.70;;;6.90;;
10947;SDS011;5526;42.070;24.752;2024-03-06T11:41:20;8.38;;;7.38;;
10947;SDS011;5526;42.070;24.752;2024-03-06T11:43:48;11.10;;;10.02;;
10947;SDS011;5526;42.070;24.752;2024-03-06T11:46:18;11.88;;;9.52;;
10947;SDS011;5526;42.070;24.752;2024-03-06T11:48:51;10.27;;;9.27;;
10947;SDS011;5526;42.070;24.752;2024-03-06T11:51:21;9.38;;;8.57;;
10947;SDS011;5526;42.070;24.752;2024-03-06T11:53:51;10.57;;;9.68;;
10947;SDS011;5526;42.070;24.752;2024-03-06T11:56:19;9.77;;;8.77;;
10947;SDS011;5526;42.070;24.752;2024-03-06T11:58:47;10.20;;;9.20;;
10947;SDS011;5526;42.070;24.752;2024-03-06T12:01:14;11.00;;;9.48;;
10947;SDS011;5526;42.070;24.752;2024-03-06T12:03:42;12.55;;;11.27;;
10947;SDS011;5526;42.070;24.752;2024-03-06T12:06:10;12.52;;;10.93;;
10947;SDS011;5526;42.070;24.752;2024-03-06T12:08:41;12.30;;;11.20;;
10947;SDS011;5526;42.070;24.752;2024-03-06T12:11:08;11.88;;;10.68;;
10947;SDS011;5526;42.070;24.752;2024-03-06T12:13:35;11.13;;;10.02;;
10947;SDS011;5526;42.070;24.752;2024-03-06T12:16:05;11.60;;;10.40;;
10947;SDS011;5526;42.070;24.752;2024-03-06T12:18:33;11.85;;;10.85;;
10947;SDS011;5526;42.070;24.752;2024-03-06T12:21:01;12.18;;;10.93;;
10947;SDS011;5526;42.070;24.752;2024-03-06T12:23:29;12.10;;;10.90;;
10947;SDS011;5526;42.070;24.752;2024-03-06T12:26:04;10.98;;;10.00;;
10947;SDS011;5526;42.070;24.752;2024-03-06T12:28:34;11.30;;;10.23;;
10947;SDS011;5526;42.070;24.752;2024-03-06T12:31:02;12.40;;;11.20;;
10947;SDS011;5526;42.070;24.752;2024-03-06T12:33:29;12.32;;;11.23;;
10947;SDS011;5526;42.070;24.752;2024-03-06T12:36:00;12.45;;;11.25;;
10947;SDS011;5526;42.070;24.752;2024-03-06T12:38:29;12.77;;;11.52;;
10947;SDS011;5526;42.070;24.752;2024-03-06T12:40:56;11.90;;;10.60;;
10947;SDS011;5526;42.070;24.752;2024-03-06T12:43:25;12.95;;;11.75;;
10947;SDS011;5526;42.070;24.752;2024-03-06T12:45:53;13.23;;;11.95;;
10947;SDS011;5526;42.070;24.752;2024-03-06T12:48:22;14.10;;;12.63;;
10947;SDS011;5526;42.070;24.752;2024-03-06T12:50:50;14.38;;;13.00;;
10947;SDS011;5526;42.070;24.752;2024-03-06T12:53:19;14.27;;;12.70;;
10947;SDS011;5526;42.070;24.752;2024-03-06T12:55:47;13.05;;;11.85;;
10947;SDS011;5526;42.070;24.752;2024-03-06T12:58:14;14.13;;;12.73;;
10947;SDS011;5526;42.070;24.752;2024-03-06T13:00:42;14.00;;;12.70;;
10947;SDS011;5526;42.070;24.752;2024-03-06T13:03:09;12.98;;;11.57;;
10947;SDS011;5526;42.070;24.752;2024-03-06T13:05:36;13.52;;;12.00;;
10947;SDS011;5526;42.070;24.752;2024-03-06T13:08:04;13.82;;;12.52;;
10947;SDS011;5526;42.070;24.752;2024-03-06T13:10:31;13.07;;;11.88;;
10947;SDS011;5526;42.070;24.752;2024-03-06T13:12:58;13.57;;;12.30;;
10947;SDS011;5526;42.070;24.752;2024-03-06T13:15:25;13.40;;;12.20;;
10947;SDS011;5526;42.070;24.752;2024-03-06T13:17:54;13.77;;;12.48;;
10947;SDS011;5526;42.070;24.752;2024-03-06T13:20:21;11.85;;;10.65;;
10947;SDS011;5526;42.070;24.752;2024-03-06T13:22:48;13.90;;;12.45;;
10947;SDS011;5526;42.070;24.752;2024-03-06T13:25:15;13.10;;;11.82;;
10947;SDS011;5526;42.070;24.752;2024-03-06T13:27:44;13.05;;;11.85;;
10947;SDS011;5526;42.070;24.752;2024-03-06T13:30:12;13.00;;;11.60;;
10947;SDS011;5526;42.070;24.752;2024-03-06T13:32:39;11.95;;;10.82;;
10947;SDS011;5526;42.070;24.752;2024-03-06T13:35:09;12.23;;;10.77;;
10947;SDS011;5526;42.070;24.752;2024-03-06T13:37:38;12.15;;;10.95;;
10947;SDS011;5526;42.070;24.752;2024-03-06T13:40:06;11.98;;;10.77;;
10947;SDS011;5526;42.070;24.752;2024-03-06T13:42:34;11.32;;;10.23;;
10947;SDS011;5526;42.070;24.752;2024-03-06T13:45:01;11.10;;;10.00;;
10947;SDS011;5526;42.070;24.752;2024-03-06T13:47:28;12.05;;;9.05;;
10947;SDS011;5526;42.070;24.752;2024-03-06T13:49:55;10.77;;;9.68;;
10947;SDS011;5526;42.070;24.752;2024-03-06T13:52:24;10.15;;;9.15;;
10947;SDS011;5526;42.070;24.752;2024-03-06T13:54:51;10.20;;;9.20;;
10947;SDS011;5526;42.070;24.752;2024-03-06T13:57:18;10.88;;;9.88;;
10947;SDS011;5526;42.070;24.752;2024-03-06T13:59:45;12.25;;;10.70;;
10947;SDS011;5526;42.070;24.752;2024-03-06T14:02:11;11.48;;;10.25;;
10947;SDS011;5526;42.070;24.752;2024-03-06T14:04:38;11.13;;;9.63;;
10947;SDS011;5526;42.070;24.752;2024-03-06T14:07:05;11.38;;;10.07;;
10947;SDS011;5526;42.070;24.752;2024-03-06T14:09:34;10.27;;;9.25;;
10947;SDS011;5526;42.070;24.752;2024-03-06T14:12:02;9.32;;;8.43;;
10947;SDS011;5526;42.070;24.752;2024-03-06T14:14:29;9.27;;;8.35;;
10947;SDS011;5526;42.070;24.752;2024-03-06T14:16:56;10.13;;;9.13;;
10947;SDS011;5526;42.070;24.752;2024-03-06T14:19:23;11.18;;;10.02;;
10947;SDS011;5526;42.070;24.752;2024-03-06T14:21:50;10.68;;;8.95;;
10947;SDS011;5526;42.070;24.752;2024-03-06T14:24:17;10.38;;;9.05;;
10947;SDS011;5526;42.070;24.752;2024-03-06T14:26:47;12.35;;;8.45;;
10947;SDS011;5526;42.070;24.752;2024-03-06T14:29:15;9.40;;;8.43;;
10947;SDS011;5526;42.070;24.752;2024-03-06T14:31:42;9.45;;;8.60;;
10947;SDS011;5526;42.070;24.752;2024-03-06T14:34:09;9.88;;;8.88;;
10947;SDS011;5526;42.070;24.752;2024-03-06T14:36:36;9.38;;;8.35;;
10947;SDS011;5526;42.070;24.752;2024-03-06T14:39:03;9.25;;;8.40;;